createdAt,value
2024-02-04T00:01:16.462Z,8.50
2024-02-04T00:03:44.790Z,8.50
2024-02-04T00:06:13.069Z,8.40
2024-02-04T00:08:41.334Z,8.40
2024-02-04T00:11:12.833Z,8.40
2024-02-04T00:13:41.368Z,8.40
2024-02-04T00:16:11.054Z,8.40
2024-02-04T00:18:39.503Z,8.40
2024-02-04T00:21:07.839Z,8.40
2024-02-04T00:23:36.084Z,8.30
2024-02-04T00:26:04.370Z,8.30
2024-02-04T00:28:32.581Z,8.30
2024-02-04T00:31:00.903Z,8.30
2024-02-04T00:33:30.631Z,8.30
2024-02-04T00:35:58.945Z,8.30
2024-02-04T00:38:27.145Z,8.20
2024-02-04T00:40:55.611Z,8.20
2024-02-04T00:43:23.880Z,8.20
2024-02-04T00:45:52.293Z,8.20
2024-02-04T00:48:20.869Z,8.20
2024-02-04T00:50:49.521Z,8.10
2024-02-04T00:53:17.708Z,8.10
2024-02-04T00:55:46.122Z,8.10
2024-02-04T00:58:14.324Z,8.10
2024-02-04T01:00:42.730Z,8.10
2024-02-04T01:03:11.177Z,8.10
2024-02-04T01:05:39.445Z,8.00
2024-02-04T01:08:09.219Z,8.00
2024-02-04T01:10:37.520Z,8.00
2024-02-04T01:13:06.319Z,8.00
2024-02-04T01:15:34.762Z,8.00
2024-02-04T01:18:03.015Z,8.00
2024-02-04T01:20:31.191Z,8.00
2024-02-04T01:22:59.370Z,7.90
2024-02-04T01:25:28.912Z,7.90
2024-02-04T01:27:57.160Z,7.90
2024-02-04T01:30:25.499Z,7.90
2024-02-04T01:32:53.846Z,7.90
2024-02-04T01:35:22.173Z,7.90
2024-02-04T01:37:50.548Z,7.90
2024-02-04T01:40:18.775Z,7.90
2024-02-04T01:42:48.489Z,7.90
2024-02-04T01:45:16.944Z,7.90
2024-02-04T01:47:45.428Z,7.90
2024-02-04T01:50:13.859Z,7.90
2024-02-04T01:52:43.430Z,7.90
2024-02-04T01:55:11.809Z,7.90
2024-02-04T01:57:40.145Z,7.90
2024-02-04T02:00:11.618Z,7.90
2024-02-04T02:02:42.359Z,8.00
2024-02-04T02:05:11.191Z,8.00
2024-02-04T02:07:39.659Z,8.00
2024-02-04T02:10:11.850Z,8.00
2024-02-04T02:12:44.674Z,8.00
2024-02-04T02:15:17.594Z,8.00
2024-02-04T02:17:51.206Z,8.00
2024-02-04T02:20:23.473Z,8.00
2024-02-04T02:22:53.141Z,7.90
2024-02-04T02:25:23.825Z,7.90
2024-02-04T02:27:52.523Z,7.90
2024-02-04T02:30:21.613Z,7.90
2024-02-04T02:32:51.901Z,7.90
2024-02-04T02:35:21.034Z,7.90
2024-02-04T02:37:58.943Z,7.90
2024-02-04T02:40:35.140Z,7.90
2024-02-04T02:43:05.249Z,7.80
2024-02-04T02:45:33.994Z,7.80
2024-02-04T02:48:03.121Z,7.80
2024-02-04T02:50:31.341Z,7.80
2024-02-04T02:52:59.656Z,7.80
2024-02-04T02:55:29.194Z,7.80
2024-02-04T02:57:57.745Z,7.70
2024-02-04T03:00:26.004Z,7.70
2024-02-04T03:02:54.361Z,7.70
2024-02-04T03:05:22.746Z,7.70
2024-02-04T03:07:51.095Z,7.70
2024-02-04T03:10:19.396Z,7.60
2024-02-04T03:12:48.994Z,7.60
2024-02-04T03:15:17.564Z,7.60
2024-02-04T03:17:46.166Z,7.60
2024-02-04T03:20:14.640Z,7.60
2024-02-04T03:22:43.958Z,7.60
2024-02-04T03:25:12.363Z,7.50
2024-02-04T03:27:42.113Z,7.50
2024-02-04T03:30:12.690Z,7.50
2024-02-04T03:32:41.027Z,7.50
2024-02-04T03:35:10.418Z,7.40
2024-02-04T03:37:38.623Z,7.40
2024-02-04T03:40:08.039Z,7.40
2024-02-04T03:42:36.413Z,7.40
2024-02-04T03:45:05.863Z,7.40
2024-02-04T03:47:35.495Z,7.40
2024-02-04T03:50:05.086Z,7.40
2024-02-04T03:52:33.502Z,7.40
2024-02-04T03:55:01.921Z,7.40
2024-02-04T03:57:32.515Z,7.30
2024-02-04T04:00:00.741Z,7.30
2024-02-04T04:02:28.939Z,7.30
2024-02-04T04:04:58.510Z,7.30
2024-02-04T04:07:26.807Z,7.30
2024-02-04T04:09:55.108Z,7.20
2024-02-04T04:12:23.382Z,7.20
2024-02-04T04:14:51.650Z,7.20
2024-02-04T04:17:19.906Z,7.20
2024-02-04T04:19:48.243Z,7.20
2024-02-04T04:22:17.908Z,7.20
2024-02-04T04:24:46.194Z,7.20
2024-02-04T04:27:14.436Z,7.20
2024-02-04T04:29:42.619Z,7.20
2024-02-04T04:32:10.827Z,7.20
2024-02-04T04:34:39.074Z,7.20
2024-02-04T04:37:07.806Z,7.10
2024-02-04T04:39:37.538Z,7.10
2024-02-04T04:42:06.269Z,7.10
2024-02-04T04:44:33.439Z,7.10
2024-02-04T04:47:01.603Z,7.10
2024-02-04T04:49:29.977Z,7.10
2024-02-04T04:51:58.278Z,7.10
2024-02-04T04:54:26.526Z,7.10
2024-02-04T04:56:56.034Z,7.10
2024-02-04T04:59:24.170Z,7.10
2024-02-04T05:01:52.644Z,7.00
2024-02-04T05:04:21.047Z,7.00
2024-02-04T05:06:49.366Z,7.00
2024-02-04T05:09:17.569Z,7.00
2024-02-04T05:11:45.832Z,7.00
2024-02-04T05:14:15.428Z,7.00
2024-02-04T05:16:45.330Z,7.00
2024-02-04T05:19:14.449Z,7.00
2024-02-04T05:21:42.865Z,7.00
2024-02-04T05:24:11.141Z,7.00
2024-02-04T05:26:39.282Z,7.00
2024-02-04T05:29:07.464Z,7.00
2024-02-04T05:31:43.264Z,7.00
2024-02-04T05:34:11.701Z,7.00
2024-02-04T05:36:40.034Z,7.00
2024-02-04T05:39:12.616Z,7.00
2024-02-04T05:41:40.916Z,7.00
2024-02-04T05:44:10.265Z,7.00
2024-02-04T05:46:40.978Z,7.00
2024-02-04T05:49:09.537Z,7.00
2024-02-04T05:51:41.622Z,7.00
2024-02-04T05:54:10.635Z,7.00
2024-02-04T05:56:39.118Z,7.00
2024-02-04T05:59:07.443Z,7.00
2024-02-04T06:01:35.725Z,7.00
2024-02-04T06:04:05.856Z,7.00
2024-02-04T06:06:34.253Z,7.00
2024-02-04T06:09:02.831Z,7.00
2024-02-04T06:11:30.991Z,7.00
2024-02-04T06:13:59.194Z,7.00
2024-02-04T06:16:28.130Z,7.00
2024-02-04T06:18:59.267Z,7.00
2024-02-04T06:21:29.100Z,7.00
2024-02-04T06:23:57.294Z,7.00
2024-02-04T06:26:25.955Z,7.00
2024-02-04T06:28:54.300Z,7.00
2024-02-04T06:31:22.706Z,7.00
2024-02-04T06:33:51.030Z,7.00
2024-02-04T06:36:19.304Z,7.00
2024-02-04T06:38:48.861Z,7.00
2024-02-04T06:41:17.065Z,7.00
2024-02-04T06:43:45.257Z,7.00
2024-02-04T06:46:13.499Z,7.00
2024-02-04T06:48:41.733Z,7.00
2024-02-04T06:51:10.010Z,7.00
2024-02-04T06:53:38.272Z,7.00
2024-02-04T06:56:08.286Z,7.00
2024-02-04T06:58:39.225Z,7.10
2024-02-04T07:01:07.578Z,7.00
2024-02-04T07:03:35.895Z,7.00
2024-02-04T07:06:04.467Z,7.10
2024-02-04T07:08:32.765Z,7.10
2024-02-04T07:11:00.997Z,7.10
2024-02-04T07:13:30.628Z,7.10
2024-02-04T07:15:59.047Z,7.10
2024-02-04T07:18:27.434Z,7.10
2024-02-04T07:20:55.647Z,7.10
2024-02-04T07:23:23.831Z,7.10
2024-02-04T07:25:52.025Z,7.10
2024-02-04T07:28:20.234Z,7.10
2024-02-04T07:30:49.807Z,7.20
2024-02-04T07:33:18.068Z,7.20
2024-02-04T07:35:46.318Z,7.20
2024-02-04T07:38:14.635Z,7.20
2024-02-04T07:40:42.985Z,7.20
2024-02-04T07:43:11.254Z,7.20
2024-02-04T07:45:39.942Z,7.20
2024-02-04T07:48:10.566Z,7.20
2024-02-04T07:50:38.838Z,7.20
2024-02-04T07:53:07.024Z,7.30
2024-02-04T07:55:35.191Z,7.30
2024-02-04T07:58:03.420Z,7.30
2024-02-04T08:00:31.727Z,7.30
2024-02-04T08:02:59.927Z,7.30
2024-02-04T08:05:29.914Z,7.30
2024-02-04T08:07:58.232Z,7.30
2024-02-04T08:10:26.664Z,7.40
2024-02-04T08:12:55.242Z,7.40
2024-02-04T08:15:23.550Z,7.40
2024-02-04T08:17:51.955Z,7.40
2024-02-04T08:20:22.247Z,7.40
2024-02-04T08:22:51.795Z,7.40
2024-02-04T08:25:20.023Z,7.40
2024-02-04T08:27:48.446Z,7.40
2024-02-04T08:30:18.000Z,7.40
2024-02-04T08:32:46.804Z,7.50
2024-02-04T08:35:15.214Z,7.50
2024-02-04T08:37:43.512Z,7.50
2024-02-04T08:40:13.573Z,7.60
2024-02-04T08:42:41.912Z,7.60
2024-02-04T08:45:10.981Z,7.60
2024-02-04T08:47:39.256Z,7.60
2024-02-04T08:50:08.747Z,7.60
2024-02-04T08:52:37.002Z,7.60
2024-02-04T08:55:07.323Z,7.70
2024-02-04T08:57:37.044Z,7.70
2024-02-04T09:00:06.124Z,7.70
2024-02-04T09:02:35.509Z,7.70
2024-02-04T09:05:03.770Z,7.70
2024-02-04T09:07:34.490Z,7.80
2024-02-04T09:10:03.182Z,7.80
2024-02-04T09:12:31.750Z,7.80
2024-02-04T09:15:01.666Z,7.80
2024-02-04T09:17:29.962Z,7.80
2024-02-04T09:19:58.374Z,7.80
2024-02-04T09:22:26.803Z,7.90
2024-02-04T09:24:55.138Z,7.90
2024-02-04T09:27:23.354Z,7.90
2024-02-04T09:29:51.641Z,7.90
2024-02-04T09:32:21.368Z,7.90
2024-02-04T09:34:49.892Z,8.00
2024-02-04T09:37:18.611Z,8.00
2024-02-04T09:39:46.991Z,8.00
2024-02-04T09:42:24.524Z,8.00
2024-02-04T09:44:52.980Z,8.10
2024-02-04T09:47:22.898Z,8.10
2024-02-04T09:49:51.304Z,8.10
2024-02-04T09:52:22.707Z,8.10
2024-02-04T09:54:54.924Z,8.20
2024-02-04T09:57:23.815Z,8.20
2024-02-04T09:59:51.981Z,8.20
2024-02-04T10:02:22.127Z,8.20
2024-02-04T10:04:52.180Z,8.30
2024-02-04T10:07:21.004Z,8.30
2024-02-04T10:09:49.566Z,8.30
2024-02-04T10:12:18.808Z,8.40
2024-02-04T10:14:46.978Z,8.40
2024-02-04T10:17:17.678Z,8.40
2024-02-04T10:19:46.055Z,8.50
2024-02-04T10:22:18.010Z,8.60
2024-02-04T10:24:48.001Z,8.60
2024-02-04T10:27:26.234Z,8.60
2024-02-04T10:29:58.747Z,8.60
2024-02-04T10:32:27.118Z,8.70
2024-02-04T10:34:55.455Z,8.70
2024-02-04T10:37:26.698Z,8.70
2024-02-04T10:39:56.641Z,8.70
2024-02-04T10:42:27.782Z,8.70
2024-02-04T10:44:57.064Z,8.80
2024-02-04T10:47:26.570Z,8.80
2024-02-04T10:49:55.861Z,8.80
2024-02-04T10:52:29.922Z,8.80
2024-02-04T10:54:58.457Z,8.80
2024-02-04T10:57:27.642Z,8.90
2024-02-04T10:59:56.185Z,8.90
2024-02-04T11:02:25.648Z,8.90
2024-02-04T11:04:56.802Z,8.90
2024-02-04T11:07:27.484Z,9.00
2024-02-04T11:09:56.087Z,9.00
2024-02-04T11:12:25.723Z,9.00
2024-02-04T11:14:59.686Z,9.10
2024-02-04T11:17:45.591Z,9.10
2024-02-04T11:20:27.545Z,9.10
2024-02-04T11:23:16.953Z,9.10
2024-02-04T11:25:48.749Z,9.10
2024-02-04T11:28:18.457Z,9.10
2024-02-04T11:30:47.445Z,9.20
2024-02-04T11:33:20.819Z,9.20
2024-02-04T11:35:49.433Z,9.20
2024-02-04T11:38:21.757Z,9.20
2024-02-04T11:40:50.313Z,9.20
2024-02-04T11:43:18.750Z,9.30
2024-02-04T11:45:48.125Z,9.30
2024-02-04T11:48:18.025Z,9.30
2024-02-04T11:50:54.244Z,9.30
2024-02-04T11:53:24.034Z,9.30
2024-02-04T11:55:55.027Z,9.30
2024-02-04T11:58:24.744Z,9.30
2024-02-04T12:00:58.772Z,9.40
2024-02-04T12:03:33.801Z,9.40
2024-02-04T12:06:02.837Z,9.40
2024-02-04T12:08:34.258Z,9.40
2024-02-04T12:11:03.839Z,9.40
2024-02-04T12:13:33.461Z,9.50
2024-02-04T12:16:01.826Z,9.50
2024-02-04T12:18:30.298Z,9.50
2024-02-04T12:20:58.703Z,9.50
2024-02-04T12:23:27.778Z,9.40
2024-02-04T12:25:57.992Z,9.50
2024-02-04T12:28:26.254Z,9.40
2024-02-04T12:30:57.519Z,9.40
2024-02-04T12:33:25.907Z,9.40
2024-02-04T12:35:57.377Z,9.40
2024-02-04T12:38:25.861Z,9.40
2024-02-04T12:40:54.199Z,9.50
2024-02-04T12:43:23.830Z,9.40
2024-02-04T12:45:52.070Z,9.40
2024-02-04T12:48:24.313Z,9.40
2024-02-04T12:50:52.665Z,9.40
2024-02-04T12:53:21.961Z,9.40
2024-02-04T12:55:51.056Z,9.40
2024-02-04T12:58:19.583Z,9.40
2024-02-04T13:00:49.368Z,9.40
2024-02-04T13:03:18.919Z,9.40
2024-02-04T13:05:48.062Z,9.40
2024-02-04T13:08:20.765Z,9.40
2024-02-04T13:10:56.904Z,9.40
2024-02-04T13:13:28.252Z,9.40
2024-02-04T13:16:00.467Z,9.40
2024-02-04T13:18:28.789Z,9.30
2024-02-04T13:20:57.034Z,9.40
2024-02-04T13:23:25.406Z,9.30
2024-02-04T13:25:53.696Z,9.30
2024-02-04T13:28:25.374Z,9.30
2024-02-04T13:30:53.738Z,9.30
2024-02-04T13:33:23.594Z,9.30
2024-02-04T13:35:52.093Z,9.30
2024-02-04T13:38:20.395Z,9.30
2024-02-04T13:40:48.973Z,9.30
2024-02-04T13:43:17.197Z,9.40
2024-02-04T13:45:45.656Z,9.40
2024-02-04T13:48:14.172Z,9.40
2024-02-04T13:50:46.096Z,9.40
2024-02-04T13:53:14.844Z,9.40
2024-02-04T13:55:43.426Z,9.40
2024-02-04T13:58:11.778Z,9.40
2024-02-04T14:00:40.238Z,9.40
2024-02-04T14:03:08.768Z,9.30
2024-02-04T14:05:37.068Z,9.30
2024-02-04T14:08:07.823Z,9.30
2024-02-04T14:10:36.235Z,9.30
2024-02-04T14:13:05.707Z,9.30
2024-02-04T14:15:35.925Z,9.30
2024-02-04T14:18:04.202Z,9.30
2024-02-04T14:20:33.005Z,9.30
2024-02-04T14:23:01.231Z,9.30
2024-02-04T14:25:31.313Z,9.30
2024-02-04T14:27:59.677Z,9.30
2024-02-04T14:30:27.994Z,9.30
2024-02-04T14:32:56.264Z,9.30
2024-02-04T14:35:24.512Z,9.30
2024-02-04T14:37:53.366Z,9.30
2024-02-04T14:40:21.702Z,9.30
2024-02-04T14:42:52.277Z,9.30
2024-02-04T14:45:20.942Z,9.30
2024-02-04T14:47:50.169Z,9.30
2024-02-04T14:50:19.738Z,9.30
2024-02-04T14:52:48.347Z,9.30
2024-02-04T14:55:19.934Z,9.30
2024-02-04T14:57:50.635Z,9.30
2024-02-04T15:00:19.639Z,9.30
2024-02-04T15:02:47.884Z,9.30
2024-02-04T15:05:16.985Z,9.30
2024-02-04T15:07:48.834Z,9.30
2024-02-04T15:10:16.587Z,9.30
2024-02-04T15:12:45.664Z,9.30
2024-02-04T15:15:16.504Z,9.30
2024-02-04T15:17:45.160Z,9.30
2024-02-04T15:20:19.153Z,9.20
2024-02-04T15:22:48.464Z,9.20
2024-02-04T15:25:18.756Z,9.20
2024-02-04T15:27:47.693Z,9.20
2024-02-04T15:30:19.105Z,9.20
2024-02-04T15:32:48.720Z,9.20
2024-02-04T15:35:18.444Z,9.10
2024-02-04T15:37:47.819Z,9.10
2024-02-04T15:40:16.369Z,9.10
2024-02-04T15:42:44.660Z,9.10
2024-02-04T15:45:14.985Z,9.10
2024-02-04T15:47:51.861Z,9.00
2024-02-04T15:50:21.154Z,9.00
2024-02-04T15:52:49.847Z,9.00
2024-02-04T15:55:19.382Z,9.00
2024-02-04T15:57:52.149Z,9.00
2024-02-04T16:00:23.850Z,9.00
2024-02-04T16:02:55.183Z,9.00
2024-02-04T16:05:25.052Z,9.00
2024-02-04T16:07:55.374Z,8.90
2024-02-04T16:10:24.837Z,8.90
2024-02-04T16:12:57.761Z,8.90
2024-02-04T16:15:27.481Z,8.90
2024-02-04T16:18:00.190Z,8.90
2024-02-04T16:20:30.099Z,8.80
2024-02-04T16:22:58.357Z,8.80
2024-02-04T16:25:30.994Z,8.80
2024-02-04T16:28:00.074Z,8.80
2024-02-04T16:30:28.418Z,8.80
2024-02-04T16:32:57.973Z,8.70
2024-02-04T16:35:26.334Z,8.70
2024-02-04T16:37:54.610Z,8.70
2024-02-04T16:40:22.789Z,8.70
2024-02-04T16:42:52.278Z,8.70
2024-02-04T16:45:20.449Z,8.70
2024-02-04T16:47:48.838Z,8.70
2024-02-04T16:50:19.197Z,8.70
2024-02-04T16:52:47.914Z,8.70
2024-02-04T16:55:16.507Z,8.70
2024-02-04T16:57:45.821Z,8.70
2024-02-04T17:00:16.399Z,8.70
2024-02-04T17:02:44.874Z,8.70
2024-02-04T17:05:14.337Z,8.70
2024-02-04T17:07:44.666Z,8.70
2024-02-04T17:10:14.499Z,8.70
2024-02-04T17:12:44.473Z,8.70
2024-02-04T17:15:14.318Z,8.70
2024-02-04T17:17:44.903Z,8.70
2024-02-04T17:20:22.719Z,8.70
2024-02-04T17:22:55.562Z,8.70
2024-02-04T17:25:30.930Z,8.70
2024-02-04T17:28:02.777Z,8.70
2024-02-04T17:30:33.081Z,8.60
2024-02-04T17:33:02.198Z,8.60
2024-02-04T17:35:30.428Z,8.60
2024-02-04T17:38:05.004Z,8.60
2024-02-04T17:40:33.877Z,8.60
2024-02-04T17:43:02.191Z,8.60
2024-02-04T17:45:30.370Z,8.60
2024-02-04T17:47:58.657Z,8.60
2024-02-04T17:50:28.628Z,8.60
2024-02-04T17:52:56.761Z,8.60
2024-02-04T17:55:27.245Z,8.60
2024-02-04T17:57:57.452Z,8.60
2024-02-04T18:00:25.782Z,8.60
2024-02-04T18:02:54.001Z,8.60
2024-02-04T18:05:22.429Z,8.60
2024-02-04T18:07:52.242Z,8.60
2024-02-04T18:10:20.618Z,8.60
2024-02-04T18:12:50.213Z,8.70
2024-02-04T18:15:18.633Z,8.70
2024-02-04T18:17:49.407Z,8.70
2024-02-04T18:20:17.982Z,8.70
2024-02-04T18:22:46.121Z,8.70
2024-02-04T18:25:14.585Z,8.70
2024-02-04T18:27:43.709Z,8.70
2024-02-04T18:30:17.723Z,8.70
2024-02-04T18:32:46.329Z,8.70
2024-02-04T18:35:14.831Z,8.70
2024-02-04T18:37:43.049Z,8.70
2024-02-04T18:40:11.935Z,8.70
2024-02-04T18:42:40.640Z,8.70
2024-02-04T18:45:09.679Z,8.70
2024-02-04T18:47:39.404Z,8.70
2024-02-04T18:50:09.263Z,8.70
2024-02-04T18:52:38.318Z,8.70
2024-02-04T18:55:07.029Z,8.70
2024-02-04T18:57:37.195Z,8.70
2024-02-04T19:00:06.964Z,8.70
2024-02-04T19:02:35.168Z,8.70
2024-02-04T19:05:06.181Z,8.70
2024-02-04T19:07:34.728Z,8.80
2024-02-04T19:10:04.745Z,8.80
2024-02-04T19:12:33.196Z,8.70
2024-02-04T19:15:04.188Z,8.80
2024-02-04T19:17:32.437Z,8.80
2024-02-04T19:20:00.974Z,8.80
2024-02-04T19:22:31.479Z,8.80
2024-02-04T19:25:00.389Z,8.90
2024-02-04T19:27:29.059Z,8.90
2024-02-04T19:29:57.245Z,8.90
2024-02-04T19:32:25.444Z,9.00
2024-02-04T19:34:53.750Z,9.00
2024-02-04T19:37:22.054Z,9.10
2024-02-04T19:39:52.029Z,9.10
2024-02-04T19:42:23.880Z,9.20
2024-02-04T19:44:52.476Z,9.20
2024-02-04T19:47:20.723Z,9.30
2024-02-04T19:49:49.068Z,9.30
2024-02-04T19:52:17.399Z,9.40
2024-02-04T19:54:45.737Z,9.40
2024-02-04T19:57:15.867Z,9.50
2024-02-04T19:59:46.945Z,9.50
2024-02-04T20:02:15.717Z,9.50
2024-02-04T20:04:44.030Z,9.60
2024-02-04T20:07:12.345Z,9.60
2024-02-04T20:09:40.656Z,9.70
2024-02-04T20:12:10.000Z,9.70
2024-02-04T20:14:41.024Z,9.80
2024-02-04T20:17:09.231Z,9.80
2024-02-04T20:19:37.682Z,9.80
2024-02-04T20:22:07.394Z,9.80
2024-02-04T20:24:35.887Z,9.90
2024-02-04T20:27:04.308Z,9.90
2024-02-04T20:29:32.507Z,9.90
2024-02-04T20:32:02.151Z,10.00
2024-02-04T20:34:30.531Z,10.00
2024-02-04T20:36:58.878Z,10.00
2024-02-04T20:39:27.213Z,10.00
2024-02-04T20:41:57.467Z,10.00
2024-02-04T20:44:25.910Z,10.10
2024-02-04T20:46:54.195Z,10.10
2024-02-04T20:49:23.863Z,10.10
2024-02-04T20:51:53.964Z,10.10
2024-02-04T20:54:22.569Z,10.10
2024-02-04T20:56:50.785Z,10.20
2024-02-04T20:59:20.656Z,10.20
2024-02-04T21:01:49.122Z,10.20
2024-02-04T21:04:17.785Z,10.20
2024-02-04T21:06:47.505Z,10.30
2024-02-04T21:09:15.787Z,10.30
2024-02-04T21:11:44.046Z,10.30
2024-02-04T21:14:12.481Z,10.30
2024-02-04T21:16:40.690Z,10.30
2024-02-04T21:19:08.974Z,10.30
2024-02-04T21:21:37.276Z,10.30
2024-02-04T21:24:07.560Z,10.30
2024-02-04T21:26:35.766Z,10.40
2024-02-04T21:29:04.586Z,10.40
2024-02-04T21:31:33.661Z,10.40
2024-02-04T21:34:02.329Z,10.40
2024-02-04T21:36:30.610Z,10.40
2024-02-04T21:38:58.777Z,10.40
2024-02-04T21:41:28.354Z,10.40
2024-02-04T21:43:56.602Z,10.40
2024-02-04T21:46:24.820Z,10.40
2024-02-04T21:48:56.785Z,10.40
2024-02-04T21:51:25.238Z,10.40
2024-02-04T21:53:53.497Z,10.40
2024-02-04T21:56:21.698Z,10.40
2024-02-04T21:58:51.350Z,10.50
2024-02-04T22:01:19.887Z,10.50
2024-02-04T22:03:49.385Z,10.50
2024-02-04T22:06:18.614Z,10.50
2024-02-04T22:08:48.652Z,10.50
2024-02-04T22:11:17.323Z,10.50
2024-02-04T22:13:46.182Z,10.50
2024-02-04T22:16:15.889Z,10.50
2024-02-04T22:18:44.298Z,10.50
2024-02-04T22:21:20.663Z,10.50
2024-02-04T22:23:49.220Z,10.50
2024-02-04T22:26:17.564Z,10.50
2024-02-04T22:28:45.747Z,10.50
2024-02-04T22:31:15.486Z,10.50
2024-02-04T22:33:43.921Z,10.50
2024-02-04T22:36:12.481Z,10.50
2024-02-04T22:38:42.491Z,10.50
2024-02-04T22:41:11.693Z,10.50
2024-02-04T22:43:40.594Z,10.50
2024-02-04T22:46:08.904Z,10.50
2024-02-04T22:48:38.711Z,10.50
2024-02-04T22:51:07.133Z,10.60
2024-02-04T22:53:35.402Z,10.50
2024-02-04T22:56:06.557Z,10.50
2024-02-04T22:58:36.416Z,10.60
2024-02-04T23:01:05.889Z,10.50
2024-02-04T23:03:34.468Z,10.50
2024-02-04T23:06:04.215Z,10.50
2024-02-04T23:08:33.024Z,10.50
2024-02-04T23:11:01.309Z,10.60
2024-02-04T23:13:29.639Z,10.50
2024-02-04T23:15:58.257Z,10.50
2024-02-04T23:18:26.949Z,10.50
2024-02-04T23:20:55.669Z,10.50
2024-02-04T23:23:27.766Z,10.60
2024-02-04T23:25:56.018Z,10.50
2024-02-04T23:28:24.752Z,10.60
2024-02-04T23:30:53.032Z,10.60
2024-02-04T23:33:21.403Z,10.50
2024-02-04T23:35:49.637Z,10.60
2024-02-04T23:38:17.858Z,10.60
2024-02-04T23:40:47.502Z,10.60
2024-02-04T23:43:15.845Z,10.60
2024-02-04T23:45:44.203Z,10.60
2024-02-04T23:48:12.569Z,10.60
2024-02-04T23:50:40.805Z,10.60
2024-02-04T23:53:09.834Z,10.60
2024-02-04T23:55:38.271Z,10.60
2024-02-04T23:58:07.982Z,10.60
